F/V Kefeleg Ar Mor — FGIK — position and weather

sailwx.info

Track history (hours):
 
Tides and Currents Weather Stations Pressure Air Temp Water Temp Dewpoint Dewpoint Depression Visibility Wind Speed Wind Dir Waves Ship Positions

F/V Kefeleg Ar Mor

Last reported at 2018-Feb-17 04:56 UTC. Time now 2018-Feb-18 01:37 UTC.
Position N 47°16' W 002°50'.

Length 20 m.

Type: Fishing. MMSI: 227852000.

Date/timePositionNaut miles runAvg speedWind from/ knotsBaromVisibWave heightAir tempDewpointWater temp
2018-Feb-17 04:56N 47°16' W 002°50'14 0.6
2018-Feb-16 06:57N 47°21' W 002°31'0 0.0
2018-Feb-16 06:30N 47°21' W 002°31'0 0.0
2018-Feb-16 06:00N 47°21' W 002°31'0 0.0
2018-Feb-15 19:41N 47°21' W 002°31'0 0.3
2018-Feb-15 19:21N 47°21' W 002°31'2 6.5
2018-Feb-15 19:00N 47°19' W 002°34'3 5.1
2018-Feb-15 18:30N 47°17' W 002°36'4 8.1
2018-Feb-15 18:00N 47°14' W 002°39'4 8.4
2018-Feb-15 17:30N 47°12' W 002°45'3 5.7
2018-Feb-15 17:00N 47°10' W 002°48'8 3.2
2018-Feb-15 14:30N 47°08' W 002°59'0 0.3
2018-Feb-15 13:52N 47°08' W 002°59'1 2.7
2018-Feb-15 13:29N 47°09' W 002°58'1 2.6
2018-Feb-15 13:00N 47°10' W 002°57'1 2.6
2018-Feb-15 12:30N 47°11' W 002°56'1 2.6
2018-Feb-15 11:59N 47°12' W 002°55'7 0.2
2018-Feb-14 02:32N 47°09' W 002°45'2 8.5
2018-Feb-14 02:19N 47°11' W 002°43'3 8.4
2018-Feb-14 01:59N 47°13' W 002°40'5 8.7
2018-Feb-14 01:27N 47°16' W 002°36'4 9.2
2018-Feb-14 01:00N 47°20' W 002°32'2 3.2
2018-Feb-14 00:29N 47°21' W 002°31'0 0.0
2018-Feb-14 00:00N 47°21' W 002°31'0 0.0
2018-Feb-13 23:30N 47°21' W 002°31'0 0.1
2018-Feb-13 23:00N 47°21' W 002°31'0 0.5
2018-Feb-13 22:30N 47°21' W 002°31'4 8.7
2018-Feb-13 22:00N 47°19' W 002°37'4 8.6
2018-Feb-13 21:30N 47°17' W 002°43'4 8.6
2018-Feb-13 21:00N 47°15' W 002°48'4 8.4
2018-Feb-13 20:30N 47°13' W 002°54'6 8.4
2018-Feb-13 19:47N 47°10' W 003°01'0 0.2
2018-Feb-13 17:20N 47°10' W 003°01'1 1.9
2018-Feb-13 16:42N 47°10' W 003°03'1 2.8
2018-Feb-13 16:30N 47°10' W 003°04'3 1.0
2018-Feb-13 13:43N 47°10' W 002°60'2 2.4
2018-Feb-13 13:01N 47°09' W 003°02'3 1.2
2018-Feb-13 10:40N 47°08' W 002°58'0 2.8
2018-Feb-13 10:30N 47°08' W 002°59'1 2.3
2018-Feb-13 09:58N 47°09' W 002°59'1 2.5
2018-Feb-13 09:30N 47°10' W 003°00'1 2.5
2018-Feb-13 09:00N 47°12' W 002°60'6 0.8
2018-Feb-13 02:06N 47°08' W 003°06'0 2.6
2018-Feb-13 02:00N 47°08' W 003°06'7 2.1
2018-Feb-12 22:34N 47°12' W 002°57'1 2.4
2018-Feb-12 22:21N 47°12' W 002°56'1 2.5
2018-Feb-12 22:00N 47°13' W 002°56'7 0.4
2018-Feb-12 04:16N 47°11' W 002°46'3 9.2
2018-Feb-12 03:58N 47°13' W 002°43'4 9.6
2018-Feb-12 03:30N 47°15' W 002°37'5 9.8
2018-Feb-12 02:59N 47°19' W 002°33'2 0.2
2018-Feb-11 17:45N 47°21' W 002°31'2 7.9
2018-Feb-11 17:30N 47°20' W 002°34'4 8.8
2018-Feb-11 17:00N 47°19' W 002°40'4 8.5
2018-Feb-11 16:30N 47°16' W 002°45'4 8.6
2018-Feb-11 16:00N 47°14' W 002°50'10 1.4
2018-Feb-11 08:52N 47°07' W 002°60'4 0.5
2018-Feb-11 00:11N 47°06' W 003°06'1 0.0
2018-Feb-10 00:21N 47°06' W 003°05'1 0.0
2018-Feb-08 01:10N 47°07' W 003°06'1 0.2
2018-Feb-07 21:11N 47°08' W 003°06'  
Track history (hours):
 
Tides and Currents Weather Stations Pressure Air Temp Water Temp Dewpoint Dewpoint Depression Visibility Wind Speed Wind Dir Waves Ship Positions

F/V Kefeleg Ar Mor

Last reported at 2018-Feb-17 04:56 UTC. Time now 2018-Feb-18 01:37 UTC.
Position N 47°16' W 002°50'.

Length 20 m.

Type: Fishing. MMSI: 227852000.

Date/timePositionNaut miles runAvg speedWind from/ knotsBaromVisibWave heightAir tempDewpointWater temp
2018-Feb-17 04:56N 47°16' W 002°50'14 0.6
2018-Feb-16 06:57N 47°21' W 002°31'0 0.0
2018-Feb-16 06:30N 47°21' W 002°31'0 0.0
2018-Feb-16 06:00N 47°21' W 002°31'0 0.0
2018-Feb-15 19:41N 47°21' W 002°31'0 0.3
2018-Feb-15 19:21N 47°21' W 002°31'2 6.5
2018-Feb-15 19:00N 47°19' W 002°34'3 5.1
2018-Feb-15 18:30N 47°17' W 002°36'4 8.1
2018-Feb-15 18:00N 47°14' W 002°39'4 8.4
2018-Feb-15 17:30N 47°12' W 002°45'3 5.7
2018-Feb-15 17:00N 47°10' W 002°48'8 3.2
2018-Feb-15 14:30N 47°08' W 002°59'0 0.3
2018-Feb-15 13:52N 47°08' W 002°59'1 2.7
2018-Feb-15 13:29N 47°09' W 002°58'1 2.6
2018-Feb-15 13:00N 47°10' W 002°57'1 2.6
2018-Feb-15 12:30N 47°11' W 002°56'1 2.6
2018-Feb-15 11:59N 47°12' W 002°55'7 0.2
2018-Feb-14 02:32N 47°09' W 002°45'2 8.5
2018-Feb-14 02:19N 47°11' W 002°43'3 8.4
2018-Feb-14 01:59N 47°13' W 002°40'5 8.7
2018-Feb-14 01:27N 47°16' W 002°36'4 9.2
2018-Feb-14 01:00N 47°20' W 002°32'2 3.2
2018-Feb-14 00:29N 47°21' W 002°31'0 0.0
2018-Feb-14 00:00N 47°21' W 002°31'0 0.0
2018-Feb-13 23:30N 47°21' W 002°31'0 0.1
2018-Feb-13 23:00N 47°21' W 002°31'0 0.5
2018-Feb-13 22:30N 47°21' W 002°31'4 8.7
2018-Feb-13 22:00N 47°19' W 002°37'4 8.6
2018-Feb-13 21:30N 47°17' W 002°43'4 8.6
2018-Feb-13 21:00N 47°15' W 002°48'4 8.4
2018-Feb-13 20:30N 47°13' W 002°54'6 8.4
2018-Feb-13 19:47N 47°10' W 003°01'0 0.2
2018-Feb-13 17:20N 47°10' W 003°01'1 1.9
2018-Feb-13 16:42N 47°10' W 003°03'1 2.8
2018-Feb-13 16:30N 47°10' W 003°04'3 1.0
2018-Feb-13 13:43N 47°10' W 002°60'2 2.4
2018-Feb-13 13:01N 47°09' W 003°02'3 1.2
2018-Feb-13 10:40N 47°08' W 002°58'0 2.8
2018-Feb-13 10:30N 47°08' W 002°59'1 2.3
2018-Feb-13 09:58N 47°09' W 002°59'1 2.5
2018-Feb-13 09:30N 47°10' W 003°00'1 2.5
2018-Feb-13 09:00N 47°12' W 002°60'6 0.8
2018-Feb-13 02:06N 47°08' W 003°06'0 2.6
2018-Feb-13 02:00N 47°08' W 003°06'7 2.1
2018-Feb-12 22:34N 47°12' W 002°57'1 2.4
2018-Feb-12 22:21N 47°12' W 002°56'1 2.5
2018-Feb-12 22:00N 47°13' W 002°56'7 0.4
2018-Feb-12 04:16N 47°11' W 002°46'3 9.2
2018-Feb-12 03:58N 47°13' W 002°43'4 9.6
2018-Feb-12 03:30N 47°15' W 002°37'5 9.8
2018-Feb-12 02:59N 47°19' W 002°33'2 0.2
2018-Feb-11 17:45N 47°21' W 002°31'2 7.9
2018-Feb-11 17:30N 47°20' W 002°34'4 8.8
2018-Feb-11 17:00N 47°19' W 002°40'4 8.5
2018-Feb-11 16:30N 47°16' W 002°45'4 8.6
2018-Feb-11 16:00N 47°14' W 002°50'10 1.4
2018-Feb-11 08:52N 47°07' W 002°60'4 0.5
2018-Feb-11 00:11N 47°06' W 003°06'1 0.0
2018-Feb-10 00:21N 47°06' W 003°05'1 0.0
2018-Feb-08 01:10N 47°07' W 003°06'1 0.2
2018-Feb-07 21:11N 47°08' W 003°06'  

Dump ship's entire track history